Terminal Aerodrome Forecast
Issued by NWS

Home | Current Version | Previous Version | Text Only | Print | Product List | Glossary On
Versions: 1 2 3 4 5 6 7 8 9 10 11 12
000
FTUS46 KSTO 040522
TAFSMF
TAF
KSMF 040522Z 0406/0506 17011KT P6SM FEW250
     FM040700 15011KT P6SM FEW250
     FM041900 19008KT P6SM SCT150 BKN250=

USA.gov is the U.S. government's official web portal to all federal, state and local government web resources and services.